Stockton-on-Tees, United Kingdom
Current Conditions -  °F | °C
As of 9:50 PM on Friday 19 Dec 2014 (Local Time) from EGNV Reporting Station
Scattered Clouds Scattered Clouds  
Wind Chill: 35°   Ceiling: Unl
Heat Index: 43°   Visibility: 6mi
Dew Point: 36°   Wind: 15mph
Humidity: 76%   Direction: 230°SW
Pressure: 29.91"   Gusts: NA
Location:  54.57°N, 1.31°W
Report Text: EGNV 192150Z 23013KT 9999 FEW033 SCT049 06/02 Q1013
Loading
Personal Weather Stations






























Interactive Weather Map New forecast layout! Learn more

10-Day Weather Forecast

Advertisements
Track Severe Weather on mobile